sensor_id;sensor_type;location;lat;lon;timestamp;pressure;altitude;pressure_sealevel;temperature;humidity
72486;BME280;60509;47.308;-122.428;2022-11-20T00:01:52;101388.31;;;3.87;24.30
72486;BME280;60509;47.308;-122.428;2022-11-20T00:04:18;101390.67;;;4.58;24.16
72486;BME280;60509;47.308;-122.428;2022-11-20T00:06:44;101393.79;;;6.95;22.75
72486;BME280;60509;47.308;-122.428;2022-11-20T00:09:10;101393.19;;;2.06;26.58
72486;BME280;60509;47.308;-122.428;2022-11-20T00:11:34;101392.61;;;1.02;27.40
72486;BME280;60509;47.308;-122.428;2022-11-20T00:14:01;101393.93;;;1.50;27.55
72486;BME280;60509;47.308;-122.428;2022-11-20T00:16:26;101400.97;;;1.14;28.32
72486;BME280;60509;47.308;-122.428;2022-11-20T00:18:50;101398.94;;;0.86;28.29
72486;BME280;60509;47.308;-122.428;2022-11-20T00:21:16;101401.41;;;-0.30;29.19
72486;BME280;60509;47.308;-122.428;2022-11-20T00:23:41;101401.29;;;-1.35;30.43
72486;BME280;60509;47.308;-122.428;2022-11-20T00:26:07;101397.96;;;-0.97;30.35
72486;BME280;60509;47.308;-122.428;2022-11-20T00:28:31;101394.61;;;-1.66;31.14
72486;BME280;60509;47.308;-122.428;2022-11-20T00:31:02;101397.60;;;-1.55;31.37
72486;BME280;60509;47.308;-122.428;2022-11-20T00:33:22;101399.00;;;-2.21;32.10
72486;BME280;60509;47.308;-122.428;2022-11-20T00:35:47;101399.88;;;-2.34;32.45
72486;BME280;60509;47.308;-122.428;2022-11-20T00:38:12;101402.24;;;-2.98;32.94
72486;BME280;60509;47.308;-122.428;2022-11-20T00:40:38;101404.68;;;-3.16;33.45
72486;BME280;60509;47.308;-122.428;2022-11-20T00:43:03;101406.81;;;-3.42;33.88
72486;BME280;60509;47.308;-122.428;2022-11-20T00:45:29;101407.42;;;-3.56;34.28
72486;BME280;60509;47.308;-122.428;2022-11-20T00:47:54;101405.43;;;-3.10;34.29
72486;BME280;60509;47.308;-122.428;2022-11-20T00:50:19;101406.28;;;-3.57;34.56
72486;BME280;60509;47.308;-122.428;2022-11-20T00:52:45;101407.38;;;-3.77;34.94
72486;BME280;60509;47.308;-122.428;2022-11-20T00:55:10;101413.79;;;-3.91;35.11
72486;BME280;60509;47.308;-122.428;2022-11-20T00:57:36;101413.18;;;-4.05;35.78
72486;BME280;60509;47.308;-122.428;2022-11-20T01:00:01;101412.14;;;-3.83;35.86
72486;BME280;60509;47.308;-122.428;2022-11-20T01:02:27;101410.25;;;-4.42;36.82
72486;BME280;60509;47.308;-122.428;2022-11-20T01:04:52;101411.41;;;-4.07;36.81
72486;BME280;60509;47.308;-122.428;2022-11-20T01:07:18;101407.94;;;-2.94;36.23
72486;BME280;60509;47.308;-122.428;2022-11-20T01:09:43;101405.84;;;-4.27;37.34
72486;BME280;60509;47.308;-122.428;2022-11-20T01:12:09;101403.59;;;-2.91;36.45
72486;BME280;60509;47.308;-122.428;2022-11-20T01:14:34;101409.39;;;-3.63;37.15
72486;BME280;60509;47.308;-122.428;2022-11-20T01:17:00;101412.95;;;-3.54;37.80
72486;BME280;60509;47.308;-122.428;2022-11-20T01:19:25;101410.90;;;-3.94;38.40
72486;BME280;60509;47.308;-122.428;2022-11-20T01:21:53;101411.59;;;-2.21;37.36
72486;BME280;60509;47.308;-122.428;2022-11-20T01:24:18;101410.68;;;-1.60;36.50
72486;BME280;60509;47.308;-122.428;2022-11-20T01:26:43;101412.14;;;-3.83;39.43
72486;BME280;60509;47.308;-122.428;2022-11-20T01:29:09;101415.18;;;-3.57;40.00
72486;BME280;60509;47.308;-122.428;2022-11-20T01:31:34;101412.15;;;-4.01;40.68
72486;BME280;60509;47.308;-122.428;2022-11-20T01:34:00;101413.48;;;-3.28;39.93
72486;BME280;60509;47.308;-122.428;2022-11-20T01:36:25;101418.82;;;-4.01;40.97
72486;BME280;60509;47.308;-122.428;2022-11-20T01:38:52;101418.42;;;-3.11;40.32
72486;BME280;60509;47.308;-122.428;2022-11-20T01:41:15;101418.46;;;-3.84;40.78
72486;BME280;60509;47.308;-122.428;2022-11-20T01:43:40;101415.93;;;-3.39;40.92
72486;BME280;60509;47.308;-122.428;2022-11-20T01:46:14;101418.73;;;-3.17;40.51
72486;BME280;60509;47.308;-122.428;2022-11-20T01:48:36;101422.21;;;-3.70;41.32
72486;BME280;60509;47.308;-122.428;2022-11-20T01:50:58;101423.42;;;-3.91;41.93
72486;BME280;60509;47.308;-122.428;2022-11-20T01:53:27;101423.06;;;-4.28;41.75
72486;BME280;60509;47.308;-122.428;2022-11-20T01:55:50;101423.38;;;-4.64;42.93
72486;BME280;60509;47.308;-122.428;2022-11-20T01:58:14;101426.25;;;-4.30;42.41
72486;BME280;60509;47.308;-122.428;2022-11-20T02:00:39;101431.12;;;-4.70;42.72
72486;BME280;60509;47.308;-122.428;2022-11-20T02:03:08;101432.58;;;-4.04;42.86
72486;BME280;60509;47.308;-122.428;2022-11-20T02:05:35;101428.70;;;-5.06;43.67
72486;BME280;60509;47.308;-122.428;2022-11-20T02:07:57;101429.62;;;-4.84;43.59
72486;BME280;60509;47.308;-122.428;2022-11-20T02:10:21;101428.92;;;-4.62;43.29
72486;BME280;60509;47.308;-122.428;2022-11-20T02:12:47;101432.77;;;-5.40;44.19
72486;BME280;60509;47.308;-122.428;2022-11-20T02:15:13;101433.18;;;-5.28;44.04
72486;BME280;60509;47.308;-122.428;2022-11-20T02:17:38;101435.62;;;-5.38;44.21
72486;BME280;60509;47.308;-122.428;2022-11-20T02:20:04;101439.35;;;-5.41;44.12
72486;BME280;60509;47.308;-122.428;2022-11-20T02:22:31;101442.74;;;-5.58;44.57
72486;BME280;60509;47.308;-122.428;2022-11-20T02:24:54;101442.95;;;-4.61;43.24
72486;BME280;60509;47.308;-122.428;2022-11-20T02:27:21;101448.13;;;-4.79;43.45
72486;BME280;60509;47.308;-122.428;2022-11-20T02:29:49;101451.53;;;-4.32;42.96
72486;BME280;60509;47.308;-122.428;2022-11-20T02:32:19;101449.61;;;-5.05;44.01
72486;BME280;60509;47.308;-122.428;2022-11-20T02:34:37;101447.25;;;-5.32;44.51
72486;BME280;60509;47.308;-122.428;2022-11-20T02:37:02;101450.08;;;-5.36;44.33
72486;BME280;60509;47.308;-122.428;2022-11-20T02:39:29;101450.66;;;-5.61;45.06
72486;BME280;60509;47.308;-122.428;2022-11-20T02:41:54;101446.08;;;-5.16;44.41
72486;BME280;60509;47.308;-122.428;2022-11-20T02:44:19;101443.65;;;-5.70;45.18
72486;BME280;60509;47.308;-122.428;2022-11-20T02:46:45;101445.32;;;-5.63;44.91
72486;BME280;60509;47.308;-122.428;2022-11-20T02:49:10;101445.39;;;-5.17;44.74
72486;BME280;60509;47.308;-122.428;2022-11-20T02:51:36;101442.59;;;-6.19;46.57
72486;BME280;60509;47.308;-122.428;2022-11-20T02:54:02;101445.34;;;-5.56;45.99
72486;BME280;60509;47.308;-122.428;2022-11-20T02:56:27;101443.58;;;-5.28;45.36
72486;BME280;60509;47.308;-122.428;2022-11-20T02:58:53;101447.15;;;-5.82;46.23
72486;BME280;60509;47.308;-122.428;2022-11-20T03:01:18;101446.96;;;-6.21;46.32
72486;BME280;60509;47.308;-122.428;2022-11-20T03:03:44;101447.01;;;-5.86;46.46
72486;BME280;60509;47.308;-122.428;2022-11-20T03:06:10;101444.66;;;-6.18;46.78
72486;BME280;60509;47.308;-122.428;2022-11-20T03:08:36;101447.84;;;-5.86;46.33
72486;BME280;60509;47.308;-122.428;2022-11-20T03:11:04;101453.68;;;-6.28;47.30
72486;BME280;60509;47.308;-122.428;2022-11-20T03:13:27;101455.81;;;-6.46;47.60
72486;BME280;60509;47.308;-122.428;2022-11-20T03:15:52;101455.55;;;-6.32;47.46
72486;BME280;60509;47.308;-122.428;2022-11-20T03:18:18;101457.12;;;-6.38;47.41
72486;BME280;60509;47.308;-122.428;2022-11-20T03:20:44;101455.66;;;-5.92;47.29
72486;BME280;60509;47.308;-122.428;2022-11-20T03:23:09;101456.10;;;-5.93;46.94
72486;BME280;60509;47.308;-122.428;2022-11-20T03:25:35;101455.81;;;-6.48;47.79
72486;BME280;60509;47.308;-122.428;2022-11-20T03:28:00;101455.17;;;-6.14;47.04
72486;BME280;60509;47.308;-122.428;2022-11-20T03:30:26;101455.86;;;-6.28;47.36
72486;BME280;60509;47.308;-122.428;2022-11-20T03:32:53;101455.06;;;-5.64;46.61
72486;BME280;60509;47.308;-122.428;2022-11-20T03:35:17;101454.30;;;-6.64;48.12
72486;BME280;60509;47.308;-122.428;2022-11-20T03:37:43;101457.00;;;-6.30;47.88
72486;BME280;60509;47.308;-122.428;2022-11-20T03:40:09;101457.44;;;-6.55;48.11
72486;BME280;60509;47.308;-122.428;2022-11-20T03:42:34;101458.93;;;-6.84;48.63
72486;BME280;60509;47.308;-122.428;2022-11-20T03:45:00;101455.61;;;-6.76;48.82
72486;BME280;60509;47.308;-122.428;2022-11-20T03:47:25;101454.99;;;-6.25;47.89
72486;BME280;60509;47.308;-122.428;2022-11-20T03:49:51;101455.35;;;-6.32;48.28
72486;BME280;60509;47.308;-122.428;2022-11-20T03:52:17;101455.36;;;-6.53;48.31
72486;BME280;60509;47.308;-122.428;2022-11-20T03:54:42;101455.32;;;-6.22;47.55
72486;BME280;60509;47.308;-122.428;2022-11-20T03:57:08;101455.35;;;-6.26;48.38
72486;BME280;60509;47.308;-122.428;2022-11-20T03:59:34;101457.27;;;-6.54;48.73
72486;BME280;60509;47.308;-122.428;2022-11-20T04:01:59;101458.58;;;-6.71;49.40
72486;BME280;60509;47.308;-122.428;2022-11-20T04:04:25;101463.43;;;-7.20;49.65
72486;BME280;60509;47.308;-122.428;2022-11-20T04:06:51;101461.12;;;-6.74;49.51
72486;BME280;60509;47.308;-122.428;2022-11-20T04:09:16;101461.60;;;-6.56;48.92
72486;BME280;60509;47.308;-122.428;2022-11-20T04:11:42;101472.94;;;-6.55;49.32
72486;BME280;60509;47.308;-122.428;2022-11-20T04:14:14;101477.55;;;-7.27;50.87
72486;BME280;60509;47.308;-122.428;2022-11-20T04:16:35;101473.95;;;-6.56;49.89
72486;BME280;60509;47.308;-122.428;2022-11-20T04:19:01;101477.08;;;-6.81;50.56
72486;BME280;60509;47.308;-122.428;2022-11-20T04:21:25;101474.51;;;-6.34;49.26
72486;BME280;60509;47.308;-122.428;2022-11-20T04:23:51;101475.71;;;-6.75;49.77
72486;BME280;60509;47.308;-122.428;2022-11-20T04:26:16;101478.29;;;-6.65;50.06
72486;BME280;60509;47.308;-122.428;2022-11-20T04:28:42;101476.90;;;-6.58;50.23
72486;BME280;60509;47.308;-122.428;2022-11-20T04:31:09;101472.35;;;-5.79;48.22
72486;BME280;60509;47.308;-122.428;2022-11-20T04:33:34;101476.48;;;-5.87;48.01
72486;BME280;60509;47.308;-122.428;2022-11-20T04:36:02;101475.24;;;-6.01;48.49
72486;BME280;60509;47.308;-122.428;2022-11-20T04:38:25;101477.71;;;-6.37;49.23
72486;BME280;60509;47.308;-122.428;2022-11-20T04:40:50;101479.90;;;-6.81;49.81
72486;BME280;60509;47.308;-122.428;2022-11-20T04:43:16;101483.03;;;-6.79;50.79
72486;BME280;60509;47.308;-122.428;2022-11-20T04:45:42;101485.63;;;-6.52;50.67
72486;BME280;60509;47.308;-122.428;2022-11-20T04:48:07;101486.10;;;-7.01;51.77
72486;BME280;60509;47.308;-122.428;2022-11-20T04:50:33;101483.96;;;-6.77;51.09
72486;BME280;60509;47.308;-122.428;2022-11-20T04:52:59;101487.09;;;-6.15;50.65
72486;BME280;60509;47.308;-122.428;2022-11-20T04:55:24;101487.82;;;-6.74;50.37
72486;BME280;60509;47.308;-122.428;2022-11-20T04:57:51;101487.93;;;-5.96;49.67
72486;BME280;60509;47.308;-122.428;2022-11-20T05:00:17;101488.99;;;-5.49;48.53
72486;BME280;60509;47.308;-122.428;2022-11-20T05:02:42;101487.31;;;-5.50;48.39
72486;BME280;60509;47.308;-122.428;2022-11-20T05:05:08;101487.04;;;-6.09;49.64
72486;BME280;60509;47.308;-122.428;2022-11-20T05:07:33;101488.95;;;-6.19;48.81
72486;BME280;60509;47.308;-122.428;2022-11-20T05:09:59;101488.30;;;-5.21;47.68
72486;BME280;60509;47.308;-122.428;2022-11-20T05:12:24;101488.27;;;-5.79;47.68
72486;BME280;60509;47.308;-122.428;2022-11-20T05:14:50;101489.67;;;-5.95;48.14
72486;BME280;60509;47.308;-122.428;2022-11-20T05:17:15;101490.98;;;-5.14;47.10
72486;BME280;60509;47.308;-122.428;2022-11-20T05:19:41;101496.34;;;-6.61;48.63
72486;BME280;60509;47.308;-122.428;2022-11-20T05:22:07;101489.51;;;-4.89;45.32
72486;BME280;60509;47.308;-122.428;2022-11-20T05:24:33;101485.95;;;-6.17;47.06
72486;BME280;60509;47.308;-122.428;2022-11-20T05:26:58;101481.57;;;-5.97;47.26
72486;BME280;60509;47.308;-122.428;2022-11-20T05:29:24;101478.56;;;-5.76;46.98
72486;BME280;60509;47.308;-122.428;2022-11-20T05:31:50;101480.07;;;-5.14;46.06
72486;BME280;60509;47.308;-122.428;2022-11-20T05:34:16;101484.82;;;-4.77;45.63
72486;BME280;60509;47.308;-122.428;2022-11-20T05:36:41;101488.03;;;-5.60;46.16
72486;BME280;60509;47.308;-122.428;2022-11-20T05:39:07;101492.24;;;-5.81;46.88
72486;BME280;60509;47.308;-122.428;2022-11-20T05:41:33;101488.53;;;-5.90;46.58
72486;BME280;60509;47.308;-122.428;2022-11-20T05:43:58;101490.82;;;-5.56;46.52
72486;BME280;60509;47.308;-122.428;2022-11-20T05:46:24;101495.63;;;-5.24;45.96
72486;BME280;60509;47.308;-122.428;2022-11-20T05:48:50;101501.02;;;-6.70;47.98
72486;BME280;60509;47.308;-122.428;2022-11-20T05:51:17;101504.39;;;-5.35;45.92
72486;BME280;60509;47.308;-122.428;2022-11-20T05:53:41;101503.20;;;-5.06;45.31
72486;BME280;60509;47.308;-122.428;2022-11-20T05:56:09;101509.99;;;-5.96;46.65
72486;BME280;60509;47.308;-122.428;2022-11-20T05:58:32;101512.71;;;-4.02;44.02
72486;BME280;60509;47.308;-122.428;2022-11-20T06:01:05;101514.87;;;-3.89;43.53
72486;BME280;60509;47.308;-122.428;2022-11-20T06:03:23;101517.93;;;-5.11;44.72
72486;BME280;60509;47.308;-122.428;2022-11-20T06:05:49;101518.83;;;-4.91;45.15
72486;BME280;60509;47.308;-122.428;2022-11-20T06:08:15;101519.14;;;-5.04;45.60
72486;BME280;60509;47.308;-122.428;2022-11-20T06:10:40;101517.61;;;-4.55;44.79
72486;BME280;60509;47.308;-122.428;2022-11-20T06:13:06;101520.77;;;-5.74;46.06
72486;BME280;60509;47.308;-122.428;2022-11-20T06:15:32;101517.07;;;-5.29;45.48
72486;BME280;60509;47.308;-122.428;2022-11-20T06:17:57;101517.49;;;-4.90;44.54
72486;BME280;60509;47.308;-122.428;2022-11-20T06:20:24;101516.15;;;-5.18;45.02
72486;BME280;60509;47.308;-122.428;2022-11-20T06:22:49;101522.71;;;-4.24;44.26
72486;BME280;60509;47.308;-122.428;2022-11-20T06:25:15;101520.85;;;-3.20;42.96
72486;BME280;60509;47.308;-122.428;2022-11-20T06:27:40;101524.92;;;-5.58;46.25
72486;BME280;60509;47.308;-122.428;2022-11-20T06:30:07;101519.73;;;-5.09;45.36
72486;BME280;60509;47.308;-122.428;2022-11-20T06:32:32;101522.12;;;-6.14;46.04
72486;BME280;60509;47.308;-122.428;2022-11-20T06:34:57;101519.11;;;-6.24;46.36
72486;BME280;60509;47.308;-122.428;2022-11-20T06:37:23;101517.78;;;-6.41;46.40
72486;BME280;60509;47.308;-122.428;2022-11-20T06:39:49;101518.69;;;-5.39;45.32
72486;BME280;60509;47.308;-122.428;2022-11-20T06:42:14;101520.09;;;-5.59;45.78
72486;BME280;60509;47.308;-122.428;2022-11-20T06:44:40;101524.38;;;-5.95;46.89
72486;BME280;60509;47.308;-122.428;2022-11-20T06:47:06;101521.41;;;-6.61;48.31
72486;BME280;60509;47.308;-122.428;2022-11-20T06:49:32;101522.78;;;-6.47;48.63
72486;BME280;60509;47.308;-122.428;2022-11-20T06:51:57;101525.32;;;-7.22;50.06
72486;BME280;60509;47.308;-122.428;2022-11-20T06:54:23;101524.56;;;-6.43;49.17
72486;BME280;60509;47.308;-122.428;2022-11-20T06:56:49;101523.22;;;-5.63;47.62
72486;BME280;60509;47.308;-122.428;2022-11-20T06:59:15;101528.62;;;-6.27;47.88
72486;BME280;60509;47.308;-122.428;2022-11-20T07:01:40;101531.50;;;-7.85;50.20
72486;BME280;60509;47.308;-122.428;2022-11-20T07:04:06;101533.02;;;-7.02;49.33
72486;BME280;60509;47.308;-122.428;2022-11-20T07:06:32;101532.23;;;-6.47;48.14
72486;BME280;60509;47.308;-122.428;2022-11-20T07:08:58;101529.65;;;-5.80;46.47
72486;BME280;60509;47.308;-122.428;2022-11-20T07:11:24;101528.20;;;-5.30;45.40
72486;BME280;60509;47.308;-122.428;2022-11-20T07:13:49;101532.30;;;-5.72;45.90
72486;BME280;60509;47.308;-122.428;2022-11-20T07:16:15;101533.48;;;-6.26;46.61
72486;BME280;60509;47.308;-122.428;2022-11-20T07:18:41;101534.12;;;-6.05;47.02
72486;BME280;60509;47.308;-122.428;2022-11-20T07:21:08;101533.60;;;-6.24;46.94
72486;BME280;60509;47.308;-122.428;2022-11-20T07:23:32;101536.48;;;-7.12;47.94
72486;BME280;60509;47.308;-122.428;2022-11-20T07:25:58;101533.71;;;-6.48;47.52
72486;BME280;60509;47.308;-122.428;2022-11-20T07:28:24;101540.92;;;-7.07;48.06
72486;BME280;60509;47.308;-122.428;2022-11-20T07:30:51;101538.98;;;-7.52;49.34
72486;BME280;60509;47.308;-122.428;2022-11-20T07:33:15;101540.87;;;-7.24;49.80
72486;BME280;60509;47.308;-122.428;2022-11-20T07:35:41;101545.06;;;-7.41;49.57
72486;BME280;60509;47.308;-122.428;2022-11-20T07:38:07;101546.74;;;-6.68;48.80
72486;BME280;60509;47.308;-122.428;2022-11-20T07:40:33;101546.35;;;-6.75;49.04
72486;BME280;60509;47.308;-122.428;2022-11-20T07:42:59;101548.12;;;-7.29;49.64
72486;BME280;60509;47.308;-122.428;2022-11-20T07:45:25;101548.75;;;-7.93;50.37
72486;BME280;60509;47.308;-122.428;2022-11-20T07:47:51;101541.54;;;-7.69;49.95
72486;BME280;60509;47.308;-122.428;2022-11-20T07:50:17;101542.18;;;-7.70;50.04
72486;BME280;60509;47.308;-122.428;2022-11-20T07:52:42;101543.46;;;-6.23;48.58
72486;BME280;60509;47.308;-122.428;2022-11-20T07:55:09;101541.65;;;-7.96;50.52
72486;BME280;60509;47.308;-122.428;2022-11-20T07:57:33;101543.87;;;-7.53;49.52
72486;BME280;60509;47.308;-122.428;2022-11-20T07:59:59;101547.44;;;-7.80;50.51
72486;BME280;60509;47.308;-122.428;2022-11-20T08:02:25;101550.20;;;-8.28;51.47
72486;BME280;60509;47.308;-122.428;2022-11-20T08:04:52;101552.35;;;-8.62;52.31
72486;BME280;60509;47.308;-122.428;2022-11-20T08:07:16;101555.78;;;-8.20;52.37
72486;BME280;60509;47.308;-122.428;2022-11-20T08:09:42;101556.21;;;-8.39;52.39
72486;BME280;60509;47.308;-122.428;2022-11-20T08:12:09;101551.96;;;-7.88;51.98
72486;BME280;60509;47.308;-122.428;2022-11-20T08:14:34;101545.00;;;-6.81;50.13
72486;BME280;60509;47.308;-122.428;2022-11-20T08:16:59;101539.18;;;-7.33;51.17
72486;BME280;60509;47.308;-122.428;2022-11-20T08:19:26;101541.87;;;-7.22;50.43
72486;BME280;60509;47.308;-122.428;2022-11-20T08:21:51;101540.32;;;-6.95;49.84
72486;BME280;60509;47.308;-122.428;2022-11-20T08:24:17;101537.50;;;-6.72;49.74
72486;BME280;60509;47.308;-122.428;2022-11-20T08:26:42;101542.56;;;-6.37;48.90
72486;BME280;60509;47.308;-122.428;2022-11-20T08:29:08;101541.57;;;-7.42;50.40
72486;BME280;60509;47.308;-122.428;2022-11-20T08:31:34;101535.50;;;-7.24;49.99
72486;BME280;60509;47.308;-122.428;2022-11-20T08:34:00;101539.08;;;-8.58;52.52
72486;BME280;60509;47.308;-122.428;2022-11-20T08:36:26;101538.98;;;-7.20;50.68
72486;BME280;60509;47.308;-122.428;2022-11-20T08:38:52;101538.82;;;-7.42;51.43
72486;BME280;60509;47.308;-122.428;2022-11-20T08:41:17;101536.71;;;-6.98;50.92
72486;BME280;60509;47.308;-122.428;2022-11-20T08:43:43;101537.38;;;-7.01;51.46
72486;BME280;60509;47.308;-122.428;2022-11-20T08:46:08;101533.10;;;-4.86;47.75
72486;BME280;60509;47.308;-122.428;2022-11-20T08:48:34;101533.81;;;-4.32;45.43
72486;BME280;60509;47.308;-122.428;2022-11-20T08:51:00;101535.38;;;-5.56;46.63
72486;BME280;60509;47.308;-122.428;2022-11-20T08:53:26;101540.10;;;-5.08;45.27
72486;BME280;60509;47.308;-122.428;2022-11-20T08:55:51;101541.88;;;-6.12;46.69
72486;BME280;60509;47.308;-122.428;2022-11-20T08:58:17;101534.20;;;-4.71;44.75
72486;BME280;60509;47.308;-122.428;2022-11-20T09:00:43;101536.84;;;-6.56;46.84
72486;BME280;60509;47.308;-122.428;2022-11-20T09:03:09;101527.80;;;-5.28;45.40
72486;BME280;60509;47.308;-122.428;2022-11-20T09:05:34;101524.99;;;-4.78;44.48
72486;BME280;60509;47.308;-122.428;2022-11-20T09:08:00;101528.99;;;-5.72;45.13
72486;BME280;60509;47.308;-122.428;2022-11-20T09:10:26;101540.82;;;-7.37;47.63
72486;BME280;60509;47.308;-122.428;2022-11-20T09:12:52;101539.12;;;-6.73;47.19
72486;BME280;60509;47.308;-122.428;2022-11-20T09:15:18;101534.79;;;-7.61;48.34
72486;BME280;60509;47.308;-122.428;2022-11-20T09:17:51;101537.56;;;-8.19;48.40
72486;BME280;60509;47.308;-122.428;2022-11-20T09:20:10;101540.87;;;-7.69;48.33
72486;BME280;60509;47.308;-122.428;2022-11-20T09:22:38;101535.20;;;-5.97;46.08
72486;BME280;60509;47.308;-122.428;2022-11-20T09:25:01;101535.24;;;-5.62;44.80
72486;BME280;60509;47.308;-122.428;2022-11-20T09:27:27;101534.52;;;-5.11;43.62
72486;BME280;60509;47.308;-122.428;2022-11-20T09:29:52;101540.37;;;-6.03;45.51
72486;BME280;60509;47.308;-122.428;2022-11-20T09:32:18;101537.95;;;-5.94;44.88
72486;BME280;60509;47.308;-122.428;2022-11-20T09:34:44;101536.04;;;-5.55;44.05
72486;BME280;60509;47.308;-122.428;2022-11-20T09:37:10;101535.44;;;-4.75;43.21
72486;BME280;60509;47.308;-122.428;2022-11-20T09:39:36;101539.14;;;-6.09;44.58
72486;BME280;60509;47.308;-122.428;2022-11-20T09:42:14;101538.19;;;-6.70;45.61
72486;BME280;60509;47.308;-122.428;2022-11-20T09:44:43;101535.79;;;-7.03;46.88
72486;BME280;60509;47.308;-122.428;2022-11-20T09:46:56;101542.34;;;-7.34;47.53
72486;BME280;60509;47.308;-122.428;2022-11-20T09:49:26;101544.09;;;-7.62;48.85
72486;BME280;60509;47.308;-122.428;2022-11-20T09:51:49;101540.80;;;-7.26;48.11
72486;BME280;60509;47.308;-122.428;2022-11-20T09:54:17;101535.90;;;-4.18;44.37
72486;BME280;60509;47.308;-122.428;2022-11-20T09:56:40;101538.19;;;-5.44;45.35
72486;BME280;60509;47.308;-122.428;2022-11-20T09:59:06;101544.28;;;-6.85;47.26
72486;BME280;60509;47.308;-122.428;2022-11-20T10:01:31;101545.18;;;-7.06;48.96
72486;BME280;60509;47.308;-122.428;2022-11-20T10:03:57;101547.43;;;-6.95;48.88
72486;BME280;60509;47.308;-122.428;2022-11-20T10:06:24;101548.38;;;-6.89;48.67
72486;BME280;60509;47.308;-122.428;2022-11-20T10:08:51;101556.23;;;-6.41;48.18
72486;BME280;60509;47.308;-122.428;2022-11-20T10:11:18;101552.91;;;-5.15;46.93
72486;BME280;60509;47.308;-122.428;2022-11-20T10:13:43;101555.22;;;-6.66;49.28
72486;BME280;60509;47.308;-122.428;2022-11-20T10:16:16;101551.34;;;-6.69;50.08
72486;BME280;60509;47.308;-122.428;2022-11-20T10:18:39;101551.34;;;-6.25;49.68
72486;BME280;60509;47.308;-122.428;2022-11-20T10:20:57;101548.95;;;-6.65;49.78
72486;BME280;60509;47.308;-122.428;2022-11-20T10:23:48;101546.71;;;-6.19;49.12
72486;BME280;60509;47.308;-122.428;2022-11-20T10:25:50;101542.88;;;-5.39;47.77
72486;BME280;60509;47.308;-122.428;2022-11-20T10:28:19;101541.02;;;-6.37;49.49
72486;BME280;60509;47.308;-122.428;2022-11-20T10:30:40;101539.87;;;-6.73;50.08
72486;BME280;60509;47.308;-122.428;2022-11-20T10:33:09;101537.83;;;-6.21;50.21
72486;BME280;60509;47.308;-122.428;2022-11-20T10:35:34;101536.87;;;-6.75;50.22
72486;BME280;60509;47.308;-122.428;2022-11-20T10:37:59;101536.25;;;-7.28;50.82
72486;BME280;60509;47.308;-122.428;2022-11-20T10:40:25;101535.72;;;-5.78;48.55
72486;BME280;60509;47.308;-122.428;2022-11-20T10:42:48;101539.95;;;-5.48;47.97
72486;BME280;60509;47.308;-122.428;2022-11-20T10:45:19;101546.93;;;-6.83;49.07
72486;BME280;60509;47.308;-122.428;2022-11-20T10:47:37;101546.54;;;-7.29;49.41
72486;BME280;60509;47.308;-122.428;2022-11-20T10:50:05;101545.05;;;-5.29;46.29
72486;BME280;60509;47.308;-122.428;2022-11-20T10:52:34;101549.53;;;-4.86;45.87
72486;BME280;60509;47.308;-122.428;2022-11-20T10:54:58;101554.03;;;-3.65;45.10
72486;BME280;60509;47.308;-122.428;2022-11-20T10:57:35;101547.15;;;-4.75;45.64
72486;BME280;60509;47.308;-122.428;2022-11-20T11:00:04;101544.91;;;-5.04;45.80
72486;BME280;60509;47.308;-122.428;2022-11-20T11:02:20;101553.74;;;-6.93;48.36
72486;BME280;60509;47.308;-122.428;2022-11-20T11:04:42;101551.59;;;-6.37;47.95
72486;BME280;60509;47.308;-122.428;2022-11-20T11:07:10;101549.28;;;-6.32;48.94
72486;BME280;60509;47.308;-122.428;2022-11-20T11:09:34;101544.83;;;-5.33;47.43
72486;BME280;60509;47.308;-122.428;2022-11-20T11:11:55;101548.86;;;-6.01;49.03
72486;BME280;60509;47.308;-122.428;2022-11-20T11:14:20;101549.51;;;-6.04;47.83
72486;BME280;60509;47.308;-122.428;2022-11-20T11:16:51;101544.68;;;-5.34;46.19
72486;BME280;60509;47.308;-122.428;2022-11-20T11:19:13;101545.27;;;-6.54;46.29
72486;BME280;60509;47.308;-122.428;2022-11-20T11:21:38;101551.05;;;-7.21;47.14
72486;BME280;60509;47.308;-122.428;2022-11-20T11:24:04;101554.08;;;-7.64;47.33
72486;BME280;60509;47.308;-122.428;2022-11-20T11:26:29;101548.64;;;-7.53;46.59
72486;BME280;60509;47.308;-122.428;2022-11-20T11:28:57;101545.20;;;-7.47;46.93
72486;BME280;60509;47.308;-122.428;2022-11-20T11:31:24;101544.40;;;-5.97;44.72
72486;BME280;60509;47.308;-122.428;2022-11-20T11:33:46;101544.39;;;-4.37;43.48
72486;BME280;60509;47.308;-122.428;2022-11-20T11:36:19;101546.42;;;-4.87;44.58
72486;BME280;60509;47.308;-122.428;2022-11-20T11:38:39;101546.95;;;-4.10;43.49
72486;BME280;60509;47.308;-122.428;2022-11-20T11:41:04;101547.25;;;-3.18;42.24
72486;BME280;60509;47.308;-122.428;2022-11-20T11:43:32;101548.39;;;-3.11;41.67
72486;BME280;60509;47.308;-122.428;2022-11-20T11:45:55;101548.39;;;-2.80;41.80
72486;BME280;60509;47.308;-122.428;2022-11-20T11:48:21;101556.02;;;-6.06;45.37
72486;BME280;60509;47.308;-122.428;2022-11-20T11:50:50;101560.26;;;-8.19;49.29
72486;BME280;60509;47.308;-122.428;2022-11-20T11:53:14;101561.23;;;-8.23;49.48
72486;BME280;60509;47.308;-122.428;2022-11-20T11:55:42;101556.53;;;-6.72;46.89
72486;BME280;60509;47.308;-122.428;2022-11-20T11:58:14;101556.76;;;-6.36;45.21
72486;BME280;60509;47.308;-122.428;2022-11-20T12:00:29;101554.19;;;-5.95;43.90
72486;BME280;60509;47.308;-122.428;2022-11-20T12:03:03;101554.14;;;-7.32;45.42
72486;BME280;60509;47.308;-122.428;2022-11-20T12:05:23;101552.32;;;-6.86;44.41
72486;BME280;60509;47.308;-122.428;2022-11-20T12:07:48;101553.83;;;-5.71;42.65
72486;BME280;60509;47.308;-122.428;2022-11-20T12:10:18;101560.39;;;-6.11;43.48
72486;BME280;60509;47.308;-122.428;2022-11-20T12:12:41;101566.38;;;-6.35;43.57